Barry, Minnesota
Current Conditions -  °F | °C
As of 12:16 PM on Tuesday 21 Oct 2014 (Local Time) from KETH Reporting Station
Clear Clear  
Wind Chill: 59°   Ceiling: Unl
Heat Index: 59°   Visibility: 10mi
Dew Point: 41°   Wind: 20mph
Humidity: 51%   Direction: 130°SE
Pressure: 30.02"   Gusts: 30mph
Location:  45.56°N, 96.56°W
Report Text: KETH 211716Z AUTO 13017G26KT 10SM CLR 15/05 A3002 RMK AO2
Loading
Personal Weather Stations






























Interactive Weather Map
Tropical Storm Tracking
New forecast layout! Learn more

10-Day Weather Forecast

Advertisements
Track Severe Weather on mobile